Sierra, Nevada
Current Conditions -  °F | °C
As of 3:35 PM on Saturday 20 Dec 2014 (Local Time) from KRTS Reporting Station
Overcast Overcast  
Wind Chill:   Ceiling: 3800
Heat Index:   Visibility: 10mi
Dew Point:   Wind: 6mph
Humidity: 57%   Direction: 270°W
Pressure: 30.09"   Gusts: NA
Location:  39.7378°N, 119.889°W
Report Text: KRTS 202335Z AUTO 27005KT 10SM OVC038 08/00 A3009 RMK AO2
Loading
Personal Weather Stations






























Interactive Weather Map New forecast layout! Learn more

10-Day Weather Forecast

Advertisements
Track Severe Weather on mobile